Santa Catarina, Texas
Current Conditions -  °F | °C
As of 10:55 PM on Monday 22 Dec 2014 (Local Time) from KEBG Reporting Station
Clear Clear  
Wind Chill: 67°   Ceiling: Unl
Heat Index: 67°   Visibility: 7mi
Dew Point: 64°   Wind: 3mph
Humidity: 87%   Direction: 190°S
Pressure: 29.61"   Gusts: NA
Location:  26.5735°N, 98.695°W
Report Text: KEBG 230455Z AUTO 19003KT 7SM CLR 20/18 A2961 RMK AO2 T01970175
Loading
Personal Weather Stations






























Interactive Weather Map New forecast layout! Learn more

10-Day Weather Forecast

Advertisements
Track Severe Weather on mobile